Virtual LH

Virtual LH. There's no better way to fly
Since 2013.



AIRPORT MAP

METAR AND TAF INFORMATION

METAR FOR LIBD
ADDS - METARS form results

(1016 UTC 21 January 2019)
Data provider http://aviationweather.gov/metar/data/
 
METAR text: LIBD 210950Z 21005KT 150V240 CAVOK 11/08 Q1014
Conditions at: LIBD (BARI/PALESE MACC, IT) observed 0950 UTC 21 January 2019
Temperature: 11.0°C (52°F)
Dewpoint: 8.0°C (46°F) [RH = 82%]
Pressure (altimeter): 29.94 inches Hg (1014.0 mb)
Winds: from the SSW (210 degrees) at 6 MPH (5 knots; 2.6 m/s)
Visibility: 6 or more miles (10+ km)
Ceiling: ceiling and visibility are OK
Clouds: unknown
Weather: no significant weather observed at this time

METAR text: LIBD 210920Z 21005KT 170V250 CAVOK 11/08 Q1014
Conditions at: LIBD (BARI/PALESE MACC, IT) observed 0920 UTC 21 January 2019
Temperature: 11.0°C (52°F)
Dewpoint: 8.0°C (46°F) [RH = 82%]
Pressure (altimeter): 29.94 inches Hg (1014.0 mb)
Winds: from the SSW (210 degrees) at 6 MPH (5 knots; 2.6 m/s)
Visibility: 6 or more miles (10+ km)
Ceiling: ceiling and visibility are OK
Clouds: unknown
Weather: no significant weather observed at this time

Forecast for: LIBD (BARI/PALESE MACC, IT)
Text: TAF LIBD 210500Z 2106/2206 17010KT 9999 SCT030
Forecast period: 0600 UTC 21 January 2019 to 0600 UTC 22 January 2019
Forecast type: FROM: standard forecast or significant change
Winds: from the S (170 degrees) at 12 MPH (10 knots; 5.1 m/s)
Visibility: 6 or more miles 10+ km)
Ceiling: at least 12,000 feet AGL
Clouds: scattered clouds at 3000 feet AGL
Weather: no significant weather forecast for this period

RUNWAY INFORMATION

Runway 07 Runway length 8005 ft Runway width 148 ft
Runway elevation 177 ft Runway displaced threshold 0 ft Runway heading 69
Runway 25 Runway length 8005 ft Runway width 148 ft
Runway elevation 108 ft Runway displaced threshold 0 ft Runway heading 249
Runway 12 Runway length 5512 ft Runway width 164 ft
Runway elevation 108 ft Runway displaced threshold 0 ft Runway heading 123
Runway 30 Runway length 5512 ft Runway width 164 ft
Runway elevation 108 ft Runway displaced threshold 0 ft Runway heading 303

AIRPORT FREQUENCIES

Type APP Name APP Frequency 119.5 MHZ
Type TWR Name TWR Frequency 118.3 MHZ

AIRPORT NEAR NAVIGATION AIDS

Type VOR-DME Name Bari Frequency 116400 KHZ